sensor_id;sensor_type;location;lat;lon;timestamp;pressure;altitude;pressure_sealevel;temperature;humidity
72892;BME280;61032;50.782;6.818;2022-10-16T00:00:35;100153.66;;;14.85;79.19
72892;BME280;61032;50.782;6.818;2022-10-16T00:01:36;100145.38;;;14.85;78.81
72892;BME280;61032;50.782;6.818;2022-10-16T00:02:36;100149.66;;;14.82;78.88
72892;BME280;61032;50.782;6.818;2022-10-16T00:03:41;100139.31;;;14.79;78.94
72892;BME280;61032;50.782;6.818;2022-10-16T00:04:41;100148.00;;;14.77;79.16
72892;BME280;61032;50.782;6.818;2022-10-16T00:05:43;100145.59;;;14.76;78.83
72892;BME280;61032;50.782;6.818;2022-10-16T00:06:44;100148.78;;;14.78;79.34
72892;BME280;61032;50.782;6.818;2022-10-16T00:07:44;100152.00;;;14.80;78.68
72892;BME280;61032;50.782;6.818;2022-10-16T00:08:46;100155.50;;;14.77;79.08
72892;BME280;61032;50.782;6.818;2022-10-16T00:09:46;100143.25;;;14.78;79.04
72892;BME280;61032;50.782;6.818;2022-10-16T00:10:47;100148.50;;;14.83;79.01
72892;BME280;61032;50.782;6.818;2022-10-16T00:11:47;100150.53;;;14.86;78.78
72892;BME280;61032;50.782;6.818;2022-10-16T00:12:47;100148.56;;;14.87;78.60
72892;BME280;61032;50.782;6.818;2022-10-16T00:13:51;100148.19;;;14.88;78.89
72892;BME280;61032;50.782;6.818;2022-10-16T00:14:52;100154.91;;;14.87;78.77
72892;BME280;61032;50.782;6.818;2022-10-16T00:15:55;100144.06;;;14.78;78.25
72892;BME280;61032;50.782;6.818;2022-10-16T00:16:56;100155.13;;;14.78;79.04
72892;BME280;61032;50.782;6.818;2022-10-16T00:17:56;100154.75;;;14.80;78.74
72892;BME280;61032;50.782;6.818;2022-10-16T00:18:57;100155.19;;;14.82;78.82
72892;BME280;61032;50.782;6.818;2022-10-16T00:19:57;100151.25;;;14.83;78.61
72892;BME280;61032;50.782;6.818;2022-10-16T00:21:09;100149.72;;;14.86;78.40
72892;BME280;61032;50.782;6.818;2022-10-16T00:22:10;100157.16;;;14.82;78.46
72892;BME280;61032;50.782;6.818;2022-10-16T00:23:10;100159.13;;;14.81;78.58
72892;BME280;61032;50.782;6.818;2022-10-16T00:24:11;100153.59;;;14.81;78.53
72892;BME280;61032;50.782;6.818;2022-10-16T00:25:11;100152.34;;;14.78;78.80
72892;BME280;61032;50.782;6.818;2022-10-16T00:26:14;100153.53;;;14.77;78.48
72892;BME280;61032;50.782;6.818;2022-10-16T00:27:15;100161.03;;;14.77;78.67
72892;BME280;61032;50.782;6.818;2022-10-16T00:28:15;100154.22;;;14.71;78.69
72892;BME280;61032;50.782;6.818;2022-10-16T00:29:15;100157.41;;;14.73;78.59
72892;BME280;61032;50.782;6.818;2022-10-16T00:30:16;100155.38;;;14.70;78.70
72892;BME280;61032;50.782;6.818;2022-10-16T00:31:18;100158.50;;;14.68;78.90
72892;BME280;61032;50.782;6.818;2022-10-16T00:32:19;100158.94;;;14.70;78.74
72892;BME280;61032;50.782;6.818;2022-10-16T00:33:20;100156.09;;;14.67;78.59
72892;BME280;61032;50.782;6.818;2022-10-16T00:34:20;100153.78;;;14.69;78.88
72892;BME280;61032;50.782;6.818;2022-10-16T00:35:20;100145.91;;;14.71;78.86
72892;BME280;61032;50.782;6.818;2022-10-16T00:36:23;100134.41;;;14.69;78.67
72892;BME280;61032;50.782;6.818;2022-10-16T00:37:24;100128.00;;;14.65;78.90
72892;BME280;61032;50.782;6.818;2022-10-16T00:38:24;100122.81;;;14.63;78.95
72892;BME280;61032;50.782;6.818;2022-10-16T00:39:25;100119.25;;;14.63;79.17
72892;BME280;61032;50.782;6.818;2022-10-16T00:40:25;100126.25;;;14.57;79.07
72892;BME280;61032;50.782;6.818;2022-10-16T00:41:27;100130.97;;;14.56;79.33
72892;BME280;61032;50.782;6.818;2022-10-16T00:42:27;100132.16;;;14.55;79.06
72892;BME280;61032;50.782;6.818;2022-10-16T00:44:50;100135.72;;;14.56;79.10
72892;BME280;61032;50.782;6.818;2022-10-16T00:45:52;100131.31;;;14.51;79.50
72892;BME280;61032;50.782;6.818;2022-10-16T00:46:53;100140.03;;;14.53;79.21
72892;BME280;61032;50.782;6.818;2022-10-16T00:47:55;100139.69;;;14.55;79.25
72892;BME280;61032;50.782;6.818;2022-10-16T00:48:57;100142.84;;;14.57;79.25
72892;BME280;61032;50.782;6.818;2022-10-16T00:50:10;100139.69;;;14.55;78.92
72892;BME280;61032;50.782;6.818;2022-10-16T00:51:12;100140.84;;;14.54;79.13
72892;BME280;61032;50.782;6.818;2022-10-16T00:52:13;100144.00;;;14.56;78.99
72892;BME280;61032;50.782;6.818;2022-10-16T00:53:15;100144.00;;;14.56;78.73
72892;BME280;61032;50.782;6.818;2022-10-16T00:54:20;100141.13;;;14.49;78.96
72892;BME280;61032;50.782;6.818;2022-10-16T00:55:23;100139.53;;;14.48;79.01
72892;BME280;61032;50.782;6.818;2022-10-16T00:56:23;100138.00;;;14.50;79.20
72892;BME280;61032;50.782;6.818;2022-10-16T00:57:24;100140.41;;;14.52;79.04
72892;BME280;61032;50.782;6.818;2022-10-16T00:58:25;100136.09;;;14.54;78.66
72892;BME280;61032;50.782;6.818;2022-10-16T00:59:31;100129.78;;;14.54;78.90
72892;BME280;61032;50.782;6.818;2022-10-16T01:00:32;100131.22;;;14.48;78.54
72892;BME280;61032;50.782;6.818;2022-10-16T01:01:32;100135.97;;;14.47;79.11
72892;BME280;61032;50.782;6.818;2022-10-16T01:02:32;100134.72;;;14.44;79.53
72892;BME280;61032;50.782;6.818;2022-10-16T01:03:35;100137.19;;;14.50;79.17
72892;BME280;61032;50.782;6.818;2022-10-16T01:04:42;100136.75;;;14.48;78.92
72892;BME280;61032;50.782;6.818;2022-10-16T01:05:49;100145.84;;;14.48;79.04
72892;BME280;61032;50.782;6.818;2022-10-16T01:07:12;100139.53;;;14.48;79.06
72892;BME280;61032;50.782;6.818;2022-10-16T01:08:39;100146.16;;;14.43;79.58
72892;BME280;61032;50.782;6.818;2022-10-16T01:11:18;100146.03;;;14.39;79.64
72892;BME280;61032;50.782;6.818;2022-10-16T01:12:33;100144.06;;;14.40;79.89
72892;BME280;61032;50.782;6.818;2022-10-16T01:13:41;100148.00;;;14.39;79.58
72892;BME280;61032;50.782;6.818;2022-10-16T01:16:07;100146.03;;;14.39;79.54
72892;BME280;61032;50.782;6.818;2022-10-16T01:17:27;100155.50;;;14.38;79.69
72892;BME280;61032;50.782;6.818;2022-10-16T01:18:53;100152.28;;;14.36;79.66
72892;BME280;61032;50.782;6.818;2022-10-16T01:22:05;100157.47;;;14.38;79.81
72892;BME280;61032;50.782;6.818;2022-10-16T01:23:20;100155.13;;;14.40;79.69
72892;BME280;61032;50.782;6.818;2022-10-16T01:24:41;100162.91;;;14.34;79.67
72892;BME280;61032;50.782;6.818;2022-10-16T01:27:13;100152.63;;;14.31;79.91
72892;BME280;61032;50.782;6.818;2022-10-16T01:28:17;100156.53;;;14.30;79.82
72892;BME280;61032;50.782;6.818;2022-10-16T01:29:39;100157.69;;;14.29;79.58
72892;BME280;61032;50.782;6.818;2022-10-16T01:30:43;100160.75;;;14.24;80.04
72892;BME280;61032;50.782;6.818;2022-10-16T01:31:49;100151.22;;;14.22;79.83
72892;BME280;61032;50.782;6.818;2022-10-16T01:33:11;100151.94;;;14.19;80.02
72892;BME280;61032;50.782;6.818;2022-10-16T01:34:18;100147.06;;;14.12;80.29
72892;BME280;61032;50.782;6.818;2022-10-16T01:35:25;100146.31;;;14.15;80.15
72892;BME280;61032;50.782;6.818;2022-10-16T01:36:31;100148.38;;;14.18;79.93
72892;BME280;61032;50.782;6.818;2022-10-16T01:37:41;100152.28;;;14.17;79.91
72892;BME280;61032;50.782;6.818;2022-10-16T01:38:47;100154.63;;;14.15;79.83
72892;BME280;61032;50.782;6.818;2022-10-16T01:39:51;100154.63;;;14.15;79.80
72892;BME280;61032;50.782;6.818;2022-10-16T01:41:00;100167.28;;;14.16;80.05
72892;BME280;61032;50.782;6.818;2022-10-16T01:42:07;100163.34;;;14.17;79.71
72892;BME280;61032;50.782;6.818;2022-10-16T01:43:14;100159.44;;;14.18;79.54
72892;BME280;61032;50.782;6.818;2022-10-16T01:45:18;100162.50;;;14.13;79.80
72892;BME280;61032;50.782;6.818;2022-10-16T01:46:20;100160.16;;;14.15;79.99
72892;BME280;61032;50.782;6.818;2022-10-16T01:47:23;100157.09;;;14.20;79.62
72892;BME280;61032;50.782;6.818;2022-10-16T01:48:25;100165.84;;;14.22;79.56
72892;BME280;61032;50.782;6.818;2022-10-16T01:49:30;100165.03;;;14.22;79.33
72892;BME280;61032;50.782;6.818;2022-10-16T01:50:33;100158.72;;;14.21;79.22
72892;BME280;61032;50.782;6.818;2022-10-16T01:51:36;100165.03;;;14.22;79.14
72892;BME280;61032;50.782;6.818;2022-10-16T01:52:40;100161.91;;;14.23;79.26
72892;BME280;61032;50.782;6.818;2022-10-16T01:53:43;100167.44;;;14.23;79.20
72892;BME280;61032;50.782;6.818;2022-10-16T01:54:47;100171.81;;;14.24;79.20
72892;BME280;61032;50.782;6.818;2022-10-16T01:55:52;100163.16;;;14.26;79.12
72892;BME280;61032;50.782;6.818;2022-10-16T01:56:56;100167.16;;;14.28;78.52
72892;BME280;61032;50.782;6.818;2022-10-16T01:57:59;100169.19;;;14.31;78.86
72892;BME280;61032;50.782;6.818;2022-10-16T01:59:05;100156.22;;;14.35;78.55
72892;BME280;61032;50.782;6.818;2022-10-16T02:00:11;100152.75;;;14.38;78.66
72892;BME280;61032;50.782;6.818;2022-10-16T02:01:13;100160.97;;;14.35;78.64
72892;BME280;61032;50.782;6.818;2022-10-16T02:02:15;100165.28;;;14.32;78.96
72892;BME280;61032;50.782;6.818;2022-10-16T02:03:18;100160.97;;;14.35;78.87
72892;BME280;61032;50.782;6.818;2022-10-16T02:04:36;100165.31;;;14.36;78.75
72892;BME280;61032;50.782;6.818;2022-10-16T02:05:53;100169.13;;;14.28;79.05
72892;BME280;61032;50.782;6.818;2022-10-16T02:06:55;100168.31;;;14.27;79.04
72892;BME280;61032;50.782;6.818;2022-10-16T02:07:55;100171.53;;;14.29;78.85
72892;BME280;61032;50.782;6.818;2022-10-16T02:08:56;100169.94;;;14.28;78.77
72892;BME280;61032;50.782;6.818;2022-10-16T02:09:56;100179.09;;;14.32;78.46
72892;BME280;61032;50.782;6.818;2022-10-16T02:10:57;100179.50;;;14.34;78.63
72892;BME280;61032;50.782;6.818;2022-10-16T02:11:59;100173.69;;;14.39;78.63
72892;BME280;61032;50.782;6.818;2022-10-16T02:13:12;100179.69;;;14.41;78.07
72892;BME280;61032;50.782;6.818;2022-10-16T02:14:14;100173.00;;;14.42;77.87
72892;BME280;61032;50.782;6.818;2022-10-16T02:15:15;100170.94;;;14.39;77.99
72892;BME280;61032;50.782;6.818;2022-10-16T02:16:16;100171.66;;;14.36;77.92
72892;BME280;61032;50.782;6.818;2022-10-16T02:17:17;100167.47;;;14.42;78.04
72892;BME280;61032;50.782;6.818;2022-10-16T02:18:18;100165.94;;;14.45;77.88
72892;BME280;61032;50.782;6.818;2022-10-16T02:19:20;100154.53;;;14.47;77.64
72892;BME280;61032;50.782;6.818;2022-10-16T02:20:25;100161.66;;;14.48;77.43
72892;BME280;61032;50.782;6.818;2022-10-16T02:21:43;100159.69;;;14.48;77.38
72892;BME280;61032;50.782;6.818;2022-10-16T02:22:47;100175.84;;;14.46;77.31
72892;BME280;61032;50.782;6.818;2022-10-16T02:25:24;100168.78;;;14.49;77.20
72892;BME280;61032;50.782;6.818;2022-10-16T02:26:33;100159.25;;;14.46;77.41
72892;BME280;61032;50.782;6.818;2022-10-16T02:28:52;100181.81;;;14.48;77.16
72892;BME280;61032;50.782;6.818;2022-10-16T02:30:19;100176.72;;;14.50;76.96
72892;BME280;61032;50.782;6.818;2022-10-16T02:31:27;100178.69;;;14.50;77.08
72892;BME280;61032;50.782;6.818;2022-10-16T02:32:31;100182.34;;;14.54;76.69
72892;BME280;61032;50.782;6.818;2022-10-16T02:33:35;100181.19;;;14.55;76.62
72892;BME280;61032;50.782;6.818;2022-10-16T02:34:39;100191.84;;;14.56;76.44
72892;BME280;61032;50.782;6.818;2022-10-16T02:35:41;100188.78;;;14.61;76.37
72892;BME280;61032;50.782;6.818;2022-10-16T02:36:44;100184.44;;;14.60;76.32
72892;BME280;61032;50.782;6.818;2022-10-16T02:37:46;100184.78;;;14.59;76.38
72892;BME280;61032;50.782;6.818;2022-10-16T02:38:48;100180.06;;;14.59;76.40
72892;BME280;61032;50.782;6.818;2022-10-16T02:39:48;100190.41;;;14.62;76.35
72892;BME280;61032;50.782;6.818;2022-10-16T02:40:49;100196.81;;;14.66;76.16
72892;BME280;61032;50.782;6.818;2022-10-16T02:41:49;100192.00;;;14.63;76.11
72892;BME280;61032;50.782;6.818;2022-10-16T02:42:54;100188.44;;;14.63;76.00
72892;BME280;61032;50.782;6.818;2022-10-16T02:43:54;100189.66;;;14.65;76.18
72892;BME280;61032;50.782;6.818;2022-10-16T02:44:55;100184.22;;;14.69;76.01
72892;BME280;61032;50.782;6.818;2022-10-16T02:45:55;100181.00;;;14.67;76.06
72892;BME280;61032;50.782;6.818;2022-10-16T02:46:55;100187.34;;;14.67;75.88
72892;BME280;61032;50.782;6.818;2022-10-16T02:47:56;100188.22;;;14.71;76.19
72892;BME280;61032;50.782;6.818;2022-10-16T02:48:56;100194.56;;;14.72;75.85
72892;BME280;61032;50.782;6.818;2022-10-16T02:49:56;100196.44;;;14.68;76.34
72892;BME280;61032;50.782;6.818;2022-10-16T02:50:57;100204.31;;;14.66;75.89
72892;BME280;61032;50.782;6.818;2022-10-16T02:51:57;100209.47;;;14.67;76.37
72892;BME280;61032;50.782;6.818;2022-10-16T02:52:57;100200.38;;;14.67;76.05
72892;BME280;61032;50.782;6.818;2022-10-16T02:53:58;100205.91;;;14.67;76.44
72892;BME280;61032;50.782;6.818;2022-10-16T02:54:58;100202.34;;;14.66;75.91
72892;BME280;61032;50.782;6.818;2022-10-16T02:55:59;100196.00;;;14.66;75.94
72892;BME280;61032;50.782;6.818;2022-10-16T02:56:59;100199.13;;;14.64;76.12
72892;BME280;61032;50.782;6.818;2022-10-16T02:57:59;100200.75;;;14.65;76.40
72892;BME280;61032;50.782;6.818;2022-10-16T02:58:59;100197.59;;;14.67;76.43
72892;BME280;61032;50.782;6.818;2022-10-16T03:00:00;100195.28;;;14.69;76.21
72892;BME280;61032;50.782;6.818;2022-10-16T03:01:00;100190.91;;;14.68;76.27
72892;BME280;61032;50.782;6.818;2022-10-16T03:02:00;100186.97;;;14.69;nan
72892;BME280;61032;50.782;6.818;2022-10-16T03:03:01;100181.00;;;14.67;76.63
72892;BME280;61032;50.782;6.818;2022-10-16T03:04:01;100181.00;;;14.67;76.10
72892;BME280;61032;50.782;6.818;2022-10-16T03:05:01;100183.41;;;14.68;76.02
72892;BME280;61032;50.782;6.818;2022-10-16T03:06:02;100183.41;;;14.68;76.22
72892;BME280;61032;50.782;6.818;2022-10-16T03:07:03;100181.09;;;14.70;76.11
72892;BME280;61032;50.782;6.818;2022-10-16T03:08:03;100180.28;;;14.70;76.04
72892;BME280;61032;50.782;6.818;2022-10-16T03:09:04;100181.44;;;14.69;76.36
72892;BME280;61032;50.782;6.818;2022-10-16T03:10:04;100176.34;;;14.71;75.96
72892;BME280;61032;50.782;6.818;2022-10-16T03:11:05;100175.97;;;14.72;75.78
72892;BME280;61032;50.782;6.818;2022-10-16T03:12:06;100170.38;;;14.69;76.09
72892;BME280;61032;50.782;6.818;2022-10-16T03:13:06;100172.72;;;14.67;76.24
72892;BME280;61032;50.782;6.818;2022-10-16T03:14:07;100172.34;;;14.68;76.15
72892;BME280;61032;50.782;6.818;2022-10-16T03:15:07;100166.00;;;14.68;76.25
72892;BME280;61032;50.782;6.818;2022-10-16T03:16:08;100169.22;;;14.70;76.06
72892;BME280;61032;50.782;6.818;2022-10-16T03:17:08;100173.94;;;14.69;76.30
72892;BME280;61032;50.782;6.818;2022-10-16T03:18:09;100175.47;;;14.67;76.33
72892;BME280;61032;50.782;6.818;2022-10-16T03:19:09;100179.41;;;14.66;76.20
72892;BME280;61032;50.782;6.818;2022-10-16T03:20:10;100172.72;;;14.67;76.36
72892;BME280;61032;50.782;6.818;2022-10-16T03:21:10;100180.22;;;14.66;76.07
72892;BME280;61032;50.782;6.818;2022-10-16T03:22:11;100177.88;;;14.68;76.46
72892;BME280;61032;50.782;6.818;2022-10-16T03:23:11;100181.81;;;14.67;76.37
72892;BME280;61032;50.782;6.818;2022-10-16T03:24:12;100179.41;;;14.66;76.26
72892;BME280;61032;50.782;6.818;2022-10-16T03:25:12;100177.00;;;14.64;76.27
72892;BME280;61032;50.782;6.818;2022-10-16T03:26:12;100172.72;;;14.67;76.24
72892;BME280;61032;50.782;6.818;2022-10-16T03:27:12;100179.47;;;14.69;76.52
72892;BME280;61032;50.782;6.818;2022-10-16T03:28:13;100171.53;;;14.68;76.34
72892;BME280;61032;50.782;6.818;2022-10-16T03:29:13;100175.91;;;14.69;76.23
72892;BME280;61032;50.782;6.818;2022-10-16T03:30:14;100173.22;;;14.72;76.03
72892;BME280;61032;50.782;6.818;2022-10-16T03:31:14;100174.47;;;14.75;75.75
72892;BME280;61032;50.782;6.818;2022-10-16T03:32:14;100176.03;;;14.76;75.98
72892;BME280;61032;50.782;6.818;2022-10-16T03:33:15;100175.63;;;14.74;75.90
72892;BME280;61032;50.782;6.818;2022-10-16T03:34:15;100172.84;;;14.74;76.23
72892;BME280;61032;50.782;6.818;2022-10-16T03:35:15;100179.19;;;14.74;75.89
72892;BME280;61032;50.782;6.818;2022-10-16T03:36:16;100171.69;;;14.75;76.21
72892;BME280;61032;50.782;6.818;2022-10-16T03:37:16;100172.84;;;14.74;75.97
72892;BME280;61032;50.782;6.818;2022-10-16T03:38:16;100182.75;;;14.75;75.94
72892;BME280;61032;50.782;6.818;2022-10-16T03:39:17;100183.91;;;14.74;75.92
72892;BME280;61032;50.782;6.818;2022-10-16T03:40:17;100183.03;;;14.70;75.98
72892;BME280;61032;50.782;6.818;2022-10-16T03:41:18;100181.88;;;14.71;75.99
72892;BME280;61032;50.782;6.818;2022-10-16T03:42:18;100177.94;;;14.72;76.28
72892;BME280;61032;50.782;6.818;2022-10-16T03:43:19;100181.16;;;14.74;76.21
72892;BME280;61032;50.782;6.818;2022-10-16T03:44:19;100177.59;;;14.73;75.84
72892;BME280;61032;50.782;6.818;2022-10-16T03:45:19;100189.31;;;14.67;76.08
72892;BME280;61032;50.782;6.818;2022-10-16T03:46:20;100181.81;;;14.67;76.23
72892;BME280;61032;50.782;6.818;2022-10-16T03:47:20;100183.34;;;14.65;76.30
72892;BME280;61032;50.782;6.818;2022-10-16T03:48:23;100186.81;;;14.62;76.30
72892;BME280;61032;50.782;6.818;2022-10-16T03:49:23;100197.16;;;14.65;76.61
72892;BME280;61032;50.782;6.818;2022-10-16T03:50:23;100203.94;;;14.67;76.64
72892;BME280;61032;50.782;6.818;2022-10-16T03:51:24;100206.78;;;14.71;76.33
72892;BME280;61032;50.782;6.818;2022-10-16T03:52:24;100211.53;;;14.70;76.24
72892;BME280;61032;50.782;6.818;2022-10-16T03:53:25;100219.03;;;14.70;76.12
72892;BME280;61032;50.782;6.818;2022-10-16T03:54:25;100213.56;;;14.73;76.27
72892;BME280;61032;50.782;6.818;2022-10-16T03:55:26;100209.63;;;14.74;76.44
72892;BME280;61032;50.782;6.818;2022-10-16T03:56:26;100216.38;;;14.77;76.13
72892;BME280;61032;50.782;6.818;2022-10-16T03:57:26;100217.63;;;14.79;76.13
72892;BME280;61032;50.782;6.818;2022-10-16T03:58:27;100217.63;;;14.79;76.16
72892;BME280;61032;50.782;6.818;2022-10-16T03:59:27;100220.47;;;14.83;75.96
72892;BME280;61032;50.782;6.818;2022-10-16T04:00:27;100215.34;;;14.85;75.95
72892;BME280;61032;50.782;6.818;2022-10-16T04:01:28;100220.81;;;14.82;76.05
72892;BME280;61032;50.782;6.818;2022-10-16T04:02:28;100223.16;;;14.79;75.91
72892;BME280;61032;50.782;6.818;2022-10-16T04:03:28;100224.38;;;14.82;76.29
72892;BME280;61032;50.782;6.818;2022-10-16T04:04:29;100222.44;;;14.83;75.89
72892;BME280;61032;50.782;6.818;2022-10-16T04:05:29;100225.63;;;14.85;76.01
72892;BME280;61032;50.782;6.818;2022-10-16T04:06:30;100219.72;;;14.86;76.16
72892;BME280;61032;50.782;6.818;2022-10-16T04:07:30;100218.56;;;14.87;75.85
72892;BME280;61032;50.782;6.818;2022-10-16T04:08:30;100216.59;;;14.88;76.05
72892;BME280;61032;50.782;6.818;2022-10-16T04:09:34;100209.91;;;14.89;76.08
72892;BME280;61032;50.782;6.818;2022-10-16T04:10:34;100215.44;;;14.89;76.10
72892;BME280;61032;50.782;6.818;2022-10-16T04:11:34;100204.38;;;14.89;76.21
72892;BME280;61032;50.782;6.818;2022-10-16T04:12:35;100207.94;;;14.89;76.19
72892;BME280;61032;50.782;6.818;2022-10-16T04:13:36;100214.63;;;14.88;76.05
72892;BME280;61032;50.782;6.818;2022-10-16T04:14:36;100214.56;;;14.85;76.50
72892;BME280;61032;50.782;6.818;2022-10-16T04:15:36;100215.72;;;14.84;76.62
72892;BME280;61032;50.782;6.818;2022-10-16T04:16:37;100208.94;;;14.81;76.68
72892;BME280;61032;50.782;6.818;2022-10-16T04:17:37;100210.13;;;14.80;76.87
72892;BME280;61032;50.782;6.818;2022-10-16T04:18:38;100222.34;;;14.79;77.03
72892;BME280;61032;50.782;6.818;2022-10-16T04:19:38;100219.59;;;14.79;76.91
72892;BME280;61032;50.782;6.818;2022-10-16T04:20:38;100214.03;;;14.79;76.64
72892;BME280;61032;50.782;6.818;2022-10-16T04:21:39;100214.47;;;14.81;76.76
72892;BME280;61032;50.782;6.818;2022-10-16T04:22:39;100224.47;;;14.86;76.78
72892;BME280;61032;50.782;6.818;2022-10-16T04:23:39;100217.31;;;14.85;76.41
72892;BME280;61032;50.782;6.818;2022-10-16T04:24:40;100226.44;;;14.85;76.86
72892;BME280;61032;50.782;6.818;2022-10-16T04:25:40;100230.38;;;14.84;76.68
72892;BME280;61032;50.782;6.818;2022-10-16T04:26:40;100231.16;;;14.85;76.84
72892;BME280;61032;50.782;6.818;2022-10-16T04:27:41;100232.63;;;14.78;76.47
72892;BME280;61032;50.782;6.818;2022-10-16T04:28:41;100235.38;;;14.78;77.09
72892;BME280;61032;50.782;6.818;2022-10-16T04:29:41;100234.94;;;14.76;76.83
72892;BME280;61032;50.782;6.818;2022-10-16T04:30:42;100230.59;;;14.75;76.86
72892;BME280;61032;50.782;6.818;2022-10-16T04:31:42;100234.09;;;14.72;77.17
72892;BME280;61032;50.782;6.818;2022-10-16T04:32:42;100229.28;;;14.69;77.13
72892;BME280;61032;50.782;6.818;2022-10-16T04:33:43;100226.00;;;14.64;77.47
72892;BME280;61032;50.782;6.818;2022-10-16T04:34:43;100230.38;;;14.65;77.61
72892;BME280;61032;50.782;6.818;2022-10-16T04:35:44;100241.53;;;14.68;77.33
72892;BME280;61032;50.782;6.818;2022-10-16T04:36:47;100234.38;;;14.67;77.17
72892;BME280;61032;50.782;6.818;2022-10-16T04:37:48;100229.22;;;14.66;77.47
72892;BME280;61032;50.782;6.818;2022-10-16T04:38:48;100228.41;;;14.65;77.72
72892;BME280;61032;50.782;6.818;2022-10-16T04:39:48;100225.56;;;14.62;77.72
72892;BME280;61032;50.782;6.818;2022-10-16T04:40:49;100229.13;;;14.62;77.64
72892;BME280;61032;50.782;6.818;2022-10-16T04:41:49;100227.91;;;14.60;78.28
72892;BME280;61032;50.782;6.818;2022-10-16T04:42:50;100231.53;;;14.64;77.76
72892;BME280;61032;50.782;6.818;2022-10-16T04:43:50;100226.38;;;14.62;77.99
72892;BME280;61032;50.782;6.818;2022-10-16T04:44:51;100230.66;;;14.60;77.61
72892;BME280;61032;50.782;6.818;2022-10-16T04:45:51;100233.75;;;14.55;78.22
72892;BME280;61032;50.782;6.818;2022-10-16T04:46:51;100233.31;;;14.53;78.28
72892;BME280;61032;50.782;6.818;2022-10-16T04:47:52;100238.47;;;14.54;78.35
72892;BME280;61032;50.782;6.818;2022-10-16T04:48:52;100239.69;;;14.57;78.07
72892;BME280;61032;50.782;6.818;2022-10-16T04:49:53;100244.50;;;14.60;78.69
72892;BME280;61032;50.782;6.818;2022-10-16T04:50:54;100243.19;;;14.54;78.36
72892;BME280;61032;50.782;6.818;2022-10-16T04:51:55;100244.06;;;14.58;78.63
72892;BME280;61032;50.782;6.818;2022-10-16T04:52:55;100243.69;;;14.59;78.34
72892;BME280;61032;50.782;6.818;2022-10-16T04:53:55;100246.47;;;14.59;78.18
72892;BME280;61032;50.782;6.818;2022-10-16T04:54:55;100244.94;;;14.62;78.42
72892;BME280;61032;50.782;6.818;2022-10-16T04:56:00;100241.72;;;14.60;78.27
72892;BME280;61032;50.782;6.818;2022-10-16T04:57:00;100238.59;;;14.61;78.46
72892;BME280;61032;50.782;6.818;2022-10-16T04:58:01;100244.06;;;14.58;78.63
72892;BME280;61032;50.782;6.818;2022-10-16T04:59:01;100251.19;;;14.59;78.77
72892;BME280;61032;50.782;6.818;2022-10-16T05:00:01;100258.41;;;14.63;78.62
72892;BME280;61032;50.782;6.818;2022-10-16T05:01:03;100265.03;;;14.59;78.59
72892;BME280;61032;50.782;6.818;2022-10-16T05:02:03;100263.84;;;14.60;78.57
72892;BME280;61032;50.782;6.818;2022-10-16T05:03:04;100264.75;;;14.64;78.62
72892;BME280;61032;50.782;6.818;2022-10-16T05:04:07;100263.22;;;14.66;78.66
72892;BME280;61032;50.782;6.818;2022-10-16T05:05:08;100259.28;;;14.67;78.45
72892;BME280;61032;50.782;6.818;2022-10-16T05:06:09;100260.38;;;14.63;78.51
72892;BME280;61032;50.782;6.818;2022-10-16T05:07:09;100255.13;;;14.58;78.58
72892;BME280;61032;50.782;6.818;2022-10-16T05:08:10;100259.50;;;14.59;79.40
72892;BME280;61032;50.782;6.818;2022-10-16T05:09:10;100256.81;;;14.62;78.80
72892;BME280;61032;50.782;6.818;2022-10-16T05:10:11;100258.69;;;14.58;78.77
72892;BME280;61032;50.782;6.818;2022-10-16T05:11:11;100258.31;;;14.60;79.23
72892;BME280;61032;50.782;6.818;2022-10-16T05:12:11;100269.84;;;14.62;78.82
72892;BME280;61032;50.782;6.818;2022-10-16T05:13:12;100258.78;;;14.62;78.87
72892;BME280;61032;50.782;6.818;2022-10-16T05:14:12;100256.72;;;14.59;78.95
72892;BME280;61032;50.782;6.818;2022-10-16T05:15:12;100256.72;;;14.59;79.03
72892;BME280;61032;50.782;6.818;2022-10-16T05:16:13;100264.31;;;14.62;78.87
72892;BME280;61032;50.782;6.818;2022-10-16T05:17:13;100260.09;;;14.68;78.66
72892;BME280;61032;50.782;6.818;2022-10-16T05:18:14;100260.81;;;14.65;78.70
72892;BME280;61032;50.782;6.818;2022-10-16T05:19:14;100267.16;;;14.65;78.68
72892;BME280;61032;50.782;6.818;2022-10-16T05:20:14;100269.13;;;14.65;78.78
72892;BME280;61032;50.782;6.818;2022-10-16T05:21:15;100261.25;;;14.67;78.78
72892;BME280;61032;50.782;6.818;2022-10-16T05:22:15;100261.69;;;14.69;78.82
72892;BME280;61032;50.782;6.818;2022-10-16T05:23:15;100264.03;;;14.67;78.90
72892;BME280;61032;50.782;6.818;2022-10-16T05:24:16;100264.47;;;14.69;78.62
72892;BME280;61032;50.782;6.818;2022-10-16T05:25:16;100265.25;;;14.69;78.50
72892;BME280;61032;50.782;6.818;2022-10-16T05:26:16;100255.34;;;14.68;78.49
72892;BME280;61032;50.782;6.818;2022-10-16T05:27:16;100262.41;;;14.66;78.90
72892;BME280;61032;50.782;6.818;2022-10-16T05:28:20;100263.22;;;14.66;78.74
72892;BME280;61032;50.782;6.818;2022-10-16T05:29:20;100269.13;;;14.65;78.92
72892;BME280;61032;50.782;6.818;2022-10-16T05:30:21;100259.13;;;14.60;78.68
72892;BME280;61032;50.782;6.818;2022-10-16T05:31:21;100264.66;;;14.60;78.94
72892;BME280;61032;50.782;6.818;2022-10-16T05:32:22;100266.25;;;14.61;79.03
72892;BME280;61032;50.782;6.818;2022-10-16T05:33:24;100265.03;;;14.59;78.77
72892;BME280;61032;50.782;6.818;2022-10-16T05:34:24;100273.31;;;14.59;78.97
72892;BME280;61032;50.782;6.818;2022-10-16T05:35:25;100270.06;;;14.53;79.20
72892;BME280;61032;50.782;6.818;2022-10-16T05:36:25;100272.84;;;14.53;79.28
72892;BME280;61032;50.782;6.818;2022-10-16T05:37:27;100271.66;;;14.54;79.10